createdAt,value
2019-02-12T00:01:46.772Z,70.21
2019-02-12T00:04:13.517Z,70.43
2019-02-12T00:06:40.677Z,70.34
2019-02-12T00:09:09.895Z,70.43
2019-02-12T00:11:36.746Z,70.35
2019-02-12T00:14:03.488Z,70.41
2019-02-12T00:16:30.247Z,70.56
2019-02-12T00:18:57.004Z,70.64
2019-02-12T00:21:23.880Z,70.61
2019-02-12T00:23:50.833Z,70.40
2019-02-12T00:26:17.704Z,70.17
2019-02-12T00:28:44.649Z,69.99
2019-02-12T00:31:11.567Z,69.30
2019-02-12T00:33:38.543Z,68.94
2019-02-12T00:36:05.393Z,67.90
2019-02-12T00:38:32.246Z,67.22
2019-02-12T00:40:59.211Z,66.35
2019-02-12T00:43:26.208Z,66.00
2019-02-12T00:45:53.081Z,65.59
2019-02-12T00:48:19.931Z,64.64
2019-02-12T00:50:46.793Z,63.22
2019-02-12T00:53:13.652Z,63.38
2019-02-12T00:55:40.402Z,63.50
2019-02-12T00:58:07.282Z,63.71
2019-02-12T01:00:34.158Z,63.32
2019-02-12T01:03:00.941Z,63.12
2019-02-12T01:05:27.810Z,62.73
2019-02-12T01:07:54.690Z,63.33
2019-02-12T01:10:21.596Z,63.39
2019-02-12T01:12:48.460Z,63.61
2019-02-12T01:15:15.247Z,63.62
2019-02-12T01:17:42.119Z,63.11
2019-02-12T01:20:10.589Z,63.27
2019-02-12T01:22:37.523Z,63.62
2019-02-12T01:25:04.793Z,63.83
2019-02-12T01:27:33.582Z,64.55
2019-02-12T01:30:00.487Z,65.02
2019-02-12T01:32:27.269Z,65.59
2019-02-12T01:34:54.247Z,65.79
2019-02-12T01:37:21.225Z,66.43
2019-02-12T01:39:48.190Z,67.29
2019-02-12T01:42:14.952Z,67.80
2019-02-12T01:44:41.944Z,67.45
2019-02-12T01:47:08.845Z,67.54
2019-02-12T01:49:35.852Z,67.60
2019-02-12T01:52:02.707Z,67.29
2019-02-12T01:54:29.460Z,67.48
2019-02-12T01:56:56.198Z,68.07
2019-02-12T01:59:23.055Z,68.05
2019-02-12T02:01:50.022Z,68.40
2019-02-12T02:04:16.875Z,68.48
2019-02-12T02:06:43.636Z,68.62
2019-02-12T02:09:10.414Z,68.65
2019-02-12T02:11:37.236Z,68.45
2019-02-12T02:14:04.117Z,68.32
2019-02-12T02:16:30.864Z,67.82
2019-02-12T02:18:57.608Z,66.88
2019-02-12T02:21:24.503Z,66.12
2019-02-12T02:23:51.471Z,65.36
2019-02-12T02:26:18.364Z,64.49
2019-02-12T02:28:45.184Z,63.06
2019-02-12T02:31:12.148Z,61.81
2019-02-12T02:33:38.937Z,61.22
2019-02-12T02:36:05.823Z,61.27
2019-02-12T02:38:32.583Z,61.12
2019-02-12T02:40:59.531Z,61.01
2019-02-12T02:43:26.433Z,62.74
2019-02-12T02:45:53.188Z,62.49
2019-02-12T02:48:19.947Z,62.43
2019-02-12T02:50:46.710Z,62.10
2019-02-12T02:53:13.578Z,61.92
2019-02-12T02:55:40.323Z,62.23
2019-02-12T02:58:07.205Z,62.29
2019-02-12T03:00:34.062Z,62.28
2019-02-12T03:03:00.841Z,62.80
2019-02-12T03:05:27.869Z,62.60
2019-02-12T03:07:54.842Z,63.07
2019-02-12T03:10:21.813Z,63.18
2019-02-12T03:12:48.887Z,63.24
2019-02-12T03:15:15.742Z,63.36
2019-02-12T03:17:42.483Z,64.00
2019-02-12T03:20:11.132Z,65.12
2019-02-12T03:22:38.144Z,65.78
2019-02-12T03:25:05.182Z,66.14
2019-02-12T03:27:31.994Z,66.61
2019-02-12T03:29:58.868Z,67.31
2019-02-12T03:32:25.720Z,67.09
2019-02-12T03:34:52.536Z,67.15
2019-02-12T03:37:19.337Z,66.67
2019-02-12T03:39:48.034Z,66.31
2019-02-12T03:42:14.960Z,66.45
2019-02-12T03:44:41.797Z,66.49
2019-02-12T03:47:08.644Z,66.62
2019-02-12T03:49:35.508Z,66.34
2019-02-12T03:52:02.260Z,66.57
2019-02-12T03:54:29.214Z,66.15
2019-02-12T03:56:56.066Z,65.26
2019-02-12T03:59:22.910Z,64.34
2019-02-12T04:01:49.662Z,64.05
2019-02-12T04:04:16.566Z,63.91
2019-02-12T04:06:43.437Z,63.51
2019-02-12T04:09:10.336Z,63.26
2019-02-12T04:11:37.207Z,63.18
2019-02-12T04:14:04.078Z,63.82
2019-02-12T04:16:30.938Z,64.53
2019-02-12T04:18:57.724Z,65.14
2019-02-12T04:21:24.497Z,65.40
2019-02-12T04:23:51.249Z,65.63
2019-02-12T04:26:18.030Z,66.28
2019-02-12T04:28:44.868Z,66.23
2019-02-12T04:31:11.717Z,65.71
2019-02-12T04:33:38.614Z,65.81
2019-02-12T04:36:17.752Z,65.83
2019-02-12T04:38:47.308Z,66.13
2019-02-12T04:41:15.187Z,65.64
2019-02-12T04:43:42.039Z,65.08
2019-02-12T04:46:09.028Z,63.82
2019-02-12T04:48:37.109Z,62.88
2019-02-12T04:51:03.946Z,62.07
2019-02-12T04:53:30.914Z,61.74
2019-02-12T04:55:57.758Z,61.70
2019-02-12T04:58:24.747Z,60.52
2019-02-12T05:00:51.744Z,60.36
2019-02-12T05:03:18.648Z,60.19
2019-02-12T05:05:45.538Z,60.13
2019-02-12T05:08:12.408Z,60.41
2019-02-12T05:10:43.838Z,60.26
2019-02-12T05:13:10.657Z,60.80
2019-02-12T05:15:37.541Z,61.28
2019-02-12T05:18:04.404Z,61.15
2019-02-12T05:20:31.380Z,61.24
2019-02-12T05:22:58.281Z,61.08
2019-02-12T05:25:25.241Z,60.54
2019-02-12T05:27:52.230Z,60.48
2019-02-12T05:30:19.120Z,60.93
2019-02-12T05:32:46.078Z,60.77
2019-02-12T05:35:12.925Z,60.92
2019-02-12T05:37:39.755Z,61.09
2019-02-12T05:40:07.388Z,61.24
2019-02-12T05:42:34.390Z,60.75
2019-02-12T05:45:01.376Z,60.50
2019-02-12T05:47:28.236Z,61.22
2019-02-12T05:50:04.594Z,61.65
2019-02-12T05:52:42.509Z,61.72
2019-02-12T05:55:11.220Z,62.43
2019-02-12T05:57:38.228Z,62.59
2019-02-12T06:00:07.678Z,63.07
2019-02-12T06:02:34.589Z,63.08
2019-02-12T06:05:01.445Z,63.04
2019-02-12T06:07:28.307Z,63.57
2019-02-12T06:09:55.286Z,64.08
2019-02-12T06:12:22.139Z,63.82
2019-02-12T06:14:49.104Z,63.03
2019-02-12T06:17:16.043Z,62.40
2019-02-12T06:19:43.030Z,62.10
2019-02-12T06:22:09.873Z,61.32
2019-02-12T06:24:36.847Z,61.19
2019-02-12T06:27:06.018Z,61.28
2019-02-12T06:29:32.888Z,61.76
2019-02-12T06:31:59.736Z,61.24
2019-02-12T06:34:26.596Z,61.26
2019-02-12T06:36:53.456Z,62.13
2019-02-12T06:39:20.444Z,63.16
2019-02-12T06:41:47.199Z,63.95
2019-02-12T06:44:14.048Z,64.23
2019-02-12T06:46:40.924Z,64.15
2019-02-12T06:49:07.944Z,64.20
2019-02-12T06:51:34.898Z,64.18
2019-02-12T06:54:01.719Z,64.07
2019-02-12T06:56:28.578Z,63.67
2019-02-12T06:58:55.423Z,63.11
2019-02-12T07:01:22.594Z,63.07
2019-02-12T07:04:00.997Z,64.05
2019-02-12T07:06:53.288Z,64.72
2019-02-12T07:09:25.394Z,65.31
2019-02-12T07:12:36.211Z,65.51
2019-02-12T07:15:34.163Z,65.50
2019-02-12T07:18:44.503Z,65.58
2019-02-12T07:21:35.670Z,65.14
2019-02-12T07:24:33.116Z,65.10
2019-02-12T07:27:51.366Z,64.58
2019-02-12T07:31:12.146Z,63.91
2019-02-12T07:34:18.323Z,63.97
2019-02-12T07:37:36.041Z,64.69
2019-02-12T07:40:38.662Z,64.65
2019-02-12T07:44:05.236Z,64.74
2019-02-12T07:47:35.388Z,64.44
2019-02-12T07:50:14.973Z,64.63
2019-02-12T07:53:13.753Z,64.17
2019-02-12T07:56:26.141Z,63.59
2019-02-12T07:59:34.874Z,64.00
2019-02-12T08:02:45.888Z,63.50
2019-02-12T08:05:46.877Z,62.30
2019-02-12T08:09:10.852Z,61.78
2019-02-12T08:11:50.391Z,61.02
2019-02-12T08:14:44.154Z,60.67
2019-02-12T08:17:39.663Z,60.73
2019-02-12T08:20:38.673Z,60.69
2019-02-12T08:23:46.360Z,62.10
2019-02-12T08:26:43.796Z,63.95
2019-02-12T08:29:32.441Z,65.04
2019-02-12T08:32:30.813Z,65.29
2019-02-12T08:35:57.536Z,64.87
2019-02-12T08:39:12.863Z,65.43
2019-02-12T08:42:16.283Z,63.16
2019-02-12T08:45:34.385Z,61.90
2019-02-12T08:48:33.512Z,61.47
2019-02-12T08:51:36.097Z,61.63
2019-02-12T08:54:31.314Z,62.48
2019-02-12T08:57:36.356Z,62.04
2019-02-12T09:00:20.878Z,61.21
2019-02-12T09:03:28.592Z,61.57
2019-02-12T09:06:16.107Z,61.28
2019-02-12T09:09:31.124Z,60.67
2019-02-12T09:12:34.482Z,59.64
2019-02-12T09:15:43.790Z,60.24
2019-02-12T09:18:51.822Z,61.21
2019-02-12T09:21:54.007Z,61.53
2019-02-12T09:24:45.844Z,60.80
2019-02-12T09:27:22.150Z,60.67
2019-02-12T09:30:46.099Z,59.63
2019-02-12T09:33:47.664Z,59.22
2019-02-12T09:37:11.644Z,59.29
2019-02-12T09:40:19.261Z,58.19
2019-02-12T09:43:13.451Z,57.68
2019-02-12T09:46:04.628Z,57.70
2019-02-12T09:48:58.849Z,58.41
2019-02-12T09:51:42.391Z,59.57
2019-02-12T09:54:32.997Z,58.50
2019-02-12T09:57:15.222Z,58.29
2019-02-12T10:00:13.859Z,56.68
2019-02-12T10:03:22.965Z,55.82
2019-02-12T10:06:21.957Z,56.53
2019-02-12T10:09:12.506Z,57.57
2019-02-12T10:12:11.990Z,56.07
2019-02-12T10:15:13.467Z,54.49
2019-02-12T10:18:22.334Z,56.58
2019-02-12T10:21:06.494Z,54.88
2019-02-12T10:24:24.267Z,55.33
2019-02-12T10:27:20.594Z,55.34
2019-02-12T10:30:03.622Z,56.34
2019-02-12T10:32:29.813Z,55.60
2019-02-12T10:34:56.778Z,55.42
2019-02-12T10:37:23.641Z,56.75
2019-02-12T10:39:50.550Z,56.23
2019-02-12T10:42:17.398Z,56.57
2019-02-12T10:44:44.389Z,55.61
2019-02-12T10:47:11.382Z,55.71
2019-02-12T10:49:38.241Z,55.78
2019-02-12T10:52:04.980Z,55.89
2019-02-12T10:54:31.852Z,57.04
2019-02-12T10:56:58.714Z,56.46
2019-02-12T10:59:25.645Z,55.88
2019-02-12T11:01:52.702Z,55.98
2019-02-12T11:04:19.545Z,56.13
2019-02-12T11:06:47.692Z,55.16
2019-02-12T11:09:14.469Z,55.39
2019-02-12T11:11:41.312Z,56.25
2019-02-12T11:14:08.152Z,55.84
2019-02-12T11:16:35.068Z,56.04
2019-02-12T11:19:01.924Z,55.52
2019-02-12T11:21:28.667Z,56.01
2019-02-12T11:23:56.418Z,56.46
2019-02-12T11:26:23.283Z,56.22
2019-02-12T11:28:50.259Z,56.69
2019-02-12T11:31:17.151Z,56.47
2019-02-12T11:33:44.131Z,56.30
2019-02-12T11:36:10.967Z,56.15
2019-02-12T11:38:37.884Z,54.63
2019-02-12T11:41:04.729Z,53.24
2019-02-12T11:43:33.484Z,52.62
2019-02-12T11:46:00.415Z,52.92
2019-02-12T11:48:28.379Z,53.14
2019-02-12T11:50:55.361Z,53.92
2019-02-12T11:53:22.420Z,54.48
2019-02-12T11:55:49.293Z,53.42
2019-02-12T11:58:18.049Z,54.18
2019-02-12T12:00:50.114Z,54.99
2019-02-12T12:03:18.861Z,53.06
2019-02-12T12:05:46.857Z,53.49
2019-02-12T12:08:13.714Z,53.22
2019-02-12T12:10:40.462Z,51.72
2019-02-12T12:13:07.311Z,51.99
2019-02-12T12:15:34.370Z,50.96
2019-02-12T12:18:01.308Z,52.23
2019-02-12T12:20:28.302Z,52.82
2019-02-12T12:22:55.308Z,51.63
2019-02-12T12:25:22.133Z,51.74
2019-02-12T12:27:49.134Z,51.46
2019-02-12T12:30:16.130Z,50.21
2019-02-12T12:32:43.102Z,49.57
2019-02-12T12:35:10.056Z,49.50
2019-02-12T12:37:37.112Z,49.83
2019-02-12T12:40:05.499Z,49.52
2019-02-12T12:42:32.295Z,49.07
2019-02-12T12:44:59.171Z,48.47
2019-02-12T12:47:26.166Z,50.40
2019-02-12T12:49:53.167Z,50.94
2019-02-12T12:52:20.082Z,51.01
2019-02-12T12:54:47.129Z,51.55
2019-02-12T12:57:16.298Z,49.67
2019-02-12T12:59:43.171Z,48.02
2019-02-12T13:02:10.156Z,48.36
2019-02-12T13:04:37.026Z,48.52
2019-02-12T13:07:05.853Z,48.60
2019-02-12T13:10:22.067Z,48.08
2019-02-12T13:12:52.016Z,45.29
2019-02-12T13:15:19.052Z,42.72
2019-02-12T13:17:46.026Z,38.37
2019-02-12T13:20:13.241Z,40.37
2019-02-12T13:22:41.219Z,44.26
2019-02-12T13:25:10.058Z,47.49
2019-02-12T13:27:36.982Z,49.40
2019-02-12T13:30:05.399Z,50.08
2019-02-12T13:32:32.511Z,49.18
2019-02-12T13:34:59.531Z,47.75
2019-02-12T13:37:27.138Z,48.63
2019-02-12T13:40:18.657Z,48.06
2019-02-12T13:42:59.178Z,47.72
2019-02-12T13:45:27.577Z,46.11
2019-02-12T13:47:54.427Z,44.25
2019-02-12T13:50:21.315Z,45.30
2019-02-12T13:52:48.317Z,42.57
2019-02-12T13:55:17.229Z,44.67
2019-02-12T13:57:43.822Z,44.52
2019-02-12T14:00:12.075Z,45.91
2019-02-12T14:02:39.020Z,45.49
2019-02-12T14:05:09.002Z,43.85
2019-02-12T14:07:35.849Z,44.00
2019-02-12T14:10:03.514Z,42.74
2019-02-12T14:12:30.410Z,41.08
2019-02-12T14:14:57.200Z,40.25
2019-02-12T14:17:24.382Z,41.40
2019-02-12T14:19:51.366Z,42.24
2019-02-12T14:22:18.116Z,41.91
2019-02-12T14:24:45.122Z,39.85
2019-02-12T14:27:12.021Z,38.94
2019-02-12T14:29:38.768Z,40.42
2019-02-12T14:32:05.498Z,39.17
2019-02-12T14:34:32.361Z,40.64
2019-02-12T14:36:59.165Z,43.92
2019-02-12T14:39:26.197Z,42.38
2019-02-12T14:41:52.976Z,41.80
2019-02-12T14:44:19.764Z,42.28
2019-02-12T14:46:46.613Z,45.18
2019-02-12T14:49:13.341Z,45.18
2019-02-12T14:51:40.215Z,45.79
2019-02-12T14:54:09.375Z,45.27
2019-02-12T14:56:36.169Z,46.31
2019-02-12T14:59:03.069Z,46.92
2019-02-12T15:01:29.924Z,48.24
2019-02-12T15:03:56.839Z,47.55
2019-02-12T15:06:23.734Z,47.41
2019-02-12T15:08:50.686Z,46.94
2019-02-12T15:11:17.541Z,46.80
2019-02-12T15:13:44.416Z,47.67
2019-02-12T15:16:21.353Z,47.14
2019-02-12T15:18:48.339Z,47.98
2019-02-12T15:21:15.310Z,47.31
2019-02-12T15:23:42.160Z,47.31
2019-02-12T15:26:09.166Z,47.34
2019-02-12T15:28:36.160Z,46.27
2019-02-12T15:31:03.038Z,44.56
2019-02-12T15:33:30.019Z,44.58
2019-02-12T15:35:56.860Z,41.02
2019-02-12T15:38:23.858Z,40.53
2019-02-12T15:40:50.606Z,40.72
2019-02-12T15:43:19.477Z,41.51
2019-02-12T15:45:47.154Z,44.14
2019-02-12T15:48:14.040Z,45.25
2019-02-12T15:50:41.013Z,46.34
2019-02-12T15:53:14.220Z,46.61
2019-02-12T15:55:51.321Z,47.27
2019-02-12T15:58:19.354Z,47.52
2019-02-12T16:00:46.339Z,48.33
2019-02-12T16:03:13.299Z,48.21
2019-02-12T16:05:40.186Z,47.92
2019-02-12T16:08:07.705Z,48.29
2019-02-12T16:10:37.526Z,48.84
2019-02-12T16:13:04.894Z,48.93
2019-02-12T16:15:31.759Z,49.13
2019-02-12T16:18:00.297Z,49.35
2019-02-12T16:20:29.048Z,49.69
2019-02-12T16:22:56.441Z,49.53
2019-02-12T16:25:23.427Z,49.35
2019-02-12T16:27:50.457Z,50.09
2019-02-12T16:30:17.333Z,50.03
2019-02-12T16:32:44.394Z,49.47
2019-02-12T16:35:12.293Z,49.14
2019-02-12T16:37:39.269Z,47.85
2019-02-12T16:40:07.689Z,49.36
2019-02-12T16:42:34.738Z,48.27
2019-02-12T16:45:01.837Z,48.60
2019-02-12T16:47:28.804Z,49.20
2019-02-12T16:49:55.803Z,49.71
2019-02-12T16:52:59.604Z,49.59
2019-02-12T16:55:36.387Z,49.98
2019-02-12T16:58:03.901Z,50.58
2019-02-12T17:00:30.638Z,50.75
2019-02-12T17:02:57.668Z,50.27
2019-02-12T17:05:24.615Z,50.04
2019-02-12T17:07:51.873Z,50.49
2019-02-12T17:10:18.848Z,51.49
2019-02-12T17:12:45.599Z,51.15
2019-02-12T17:15:12.463Z,51.07
2019-02-12T17:17:39.541Z,50.44
2019-02-12T17:20:09.576Z,50.71
2019-02-12T17:22:38.203Z,50.63
2019-02-12T17:25:06.974Z,50.61
2019-02-12T17:27:35.826Z,50.55
2019-02-12T17:30:06.016Z,50.84
2019-02-12T17:32:33.158Z,51.58
2019-02-12T17:35:01.684Z,51.32
2019-02-12T17:37:29.020Z,51.06
2019-02-12T17:39:55.850Z,51.01
2019-02-12T17:42:22.722Z,51.84
2019-02-12T17:44:49.582Z,52.29
2019-02-12T17:47:16.554Z,53.28
2019-02-12T17:49:48.895Z,52.56
2019-02-12T17:52:15.853Z,54.09
2019-02-12T17:54:42.767Z,54.40
2019-02-12T17:57:09.604Z,53.86
2019-02-12T17:59:37.683Z,54.35
2019-02-12T18:02:04.728Z,54.21
2019-02-12T18:04:31.712Z,54.29
2019-02-12T18:06:59.707Z,54.46
2019-02-12T18:09:26.580Z,54.64
2019-02-12T18:11:53.437Z,55.07
2019-02-12T18:14:20.293Z,55.10
2019-02-12T18:16:47.190Z,54.97
2019-02-12T18:19:14.151Z,54.55
2019-02-12T18:21:41.013Z,54.21
2019-02-12T18:24:08.040Z,55.36
2019-02-12T18:26:34.802Z,54.72
2019-02-12T18:29:01.681Z,54.70
2019-02-12T18:31:28.623Z,54.55
2019-02-12T18:33:55.486Z,55.12
2019-02-12T18:36:22.451Z,55.19
2019-02-12T18:38:49.447Z,55.19
2019-02-12T18:41:16.562Z,55.75
2019-02-12T18:43:47.322Z,56.05
2019-02-12T18:46:14.299Z,55.51
2019-02-12T18:48:42.252Z,55.26
2019-02-12T18:51:09.227Z,55.76
2019-02-12T18:53:35.974Z,55.97
2019-02-12T18:56:02.842Z,56.05
2019-02-12T18:58:29.800Z,55.96
2019-02-12T19:00:56.992Z,55.88
2019-02-12T19:03:23.970Z,55.70
2019-02-12T19:05:51.275Z,56.01
2019-02-12T19:08:18.275Z,56.40
2019-02-12T19:10:45.368Z,56.81
2019-02-12T19:13:12.153Z,57.75
2019-02-12T19:15:39.663Z,56.77
2019-02-12T19:18:10.385Z,57.74
2019-02-12T19:20:37.632Z,57.81
2019-02-12T19:23:04.967Z,58.37
2019-02-12T19:25:31.929Z,58.59
2019-02-12T19:27:58.899Z,59.56
2019-02-12T19:30:25.911Z,59.66
2019-02-12T19:32:52.764Z,59.35
2019-02-12T19:35:19.650Z,58.44
2019-02-12T19:37:46.967Z,58.18
2019-02-12T19:40:13.943Z,58.92
2019-02-12T19:42:40.852Z,58.83
2019-02-12T19:45:08.742Z,59.11
2019-02-12T19:47:35.798Z,59.33
2019-02-12T19:50:02.819Z,59.45
2019-02-12T19:52:30.356Z,60.14
2019-02-12T19:54:57.334Z,59.74
2019-02-12T19:57:24.202Z,60.25
2019-02-12T19:59:51.223Z,60.22
2019-02-12T20:02:18.185Z,60.24
2019-02-12T20:04:45.288Z,59.85
2019-02-12T20:07:12.082Z,59.22
2019-02-12T20:09:38.943Z,59.25
2019-02-12T20:12:05.835Z,59.19
2019-02-12T20:14:32.780Z,59.31
2019-02-12T20:16:59.620Z,59.66
2019-02-12T20:19:26.605Z,59.21
2019-02-12T20:21:53.797Z,59.60
2019-02-12T20:24:20.760Z,60.26
2019-02-12T20:26:47.605Z,60.41
2019-02-12T20:29:14.474Z,60.32
2019-02-12T20:31:41.327Z,59.96
2019-02-12T20:34:08.279Z,60.00
2019-02-12T20:36:35.152Z,60.07
2019-02-12T20:39:02.030Z,59.99
2019-02-12T20:41:30.788Z,60.43
2019-02-12T20:43:57.593Z,60.99
2019-02-12T20:46:25.595Z,61.07
2019-02-12T20:48:52.334Z,60.79
2019-02-12T20:51:19.260Z,60.65
2019-02-12T20:53:46.220Z,60.77
2019-02-12T20:56:13.175Z,61.12
2019-02-12T20:58:40.200Z,61.25
2019-02-12T21:01:07.187Z,61.08
2019-02-12T21:03:34.086Z,61.14
2019-02-12T21:06:01.088Z,61.39
2019-02-12T21:08:27.970Z,61.89
2019-02-12T21:10:55.013Z,62.14
2019-02-12T21:13:21.947Z,62.25
2019-02-12T21:15:48.795Z,62.51
2019-02-12T21:18:15.711Z,62.22
2019-02-12T21:20:42.596Z,62.37
2019-02-12T21:23:09.557Z,62.00
2019-02-12T21:25:36.669Z,61.88
2019-02-12T21:28:03.582Z,61.77
2019-02-12T21:30:30.454Z,61.71
2019-02-12T21:32:57.312Z,62.13
2019-02-12T21:35:24.165Z,62.51
2019-02-12T21:37:51.026Z,62.95
2019-02-12T21:40:19.295Z,62.78
2019-02-12T21:42:47.151Z,63.20
2019-02-12T21:45:32.237Z,63.42
2019-02-12T21:47:59.145Z,63.55
2019-02-12T21:50:26.150Z,63.70
2019-02-12T21:52:54.309Z,64.17
2019-02-12T21:55:21.081Z,64.49
2019-02-12T21:57:47.921Z,64.45
2019-02-12T22:00:14.958Z,64.19
2019-02-12T22:02:42.468Z,64.11
2019-02-12T22:05:11.234Z,63.81
2019-02-12T22:07:37.975Z,63.55
2019-02-12T22:10:07.190Z,63.14
2019-02-12T22:12:34.345Z,63.57
2019-02-12T22:15:01.090Z,63.62
2019-02-12T22:17:28.068Z,63.34
2019-02-12T22:19:55.021Z,63.47
2019-02-12T22:22:21.806Z,63.30
2019-02-12T22:24:48.577Z,63.68
2019-02-12T22:27:15.411Z,64.18
2019-02-12T22:29:42.254Z,64.64
2019-02-12T22:32:09.022Z,65.02
2019-02-12T22:34:35.755Z,64.52
2019-02-12T22:37:02.615Z,64.33
2019-02-12T22:39:29.461Z,64.38
2019-02-12T22:41:56.309Z,64.34
2019-02-12T22:44:23.162Z,64.28
2019-02-12T22:46:49.951Z,64.38
2019-02-12T22:49:17.576Z,63.97
2019-02-12T22:51:44.548Z,63.76
2019-02-12T22:54:11.549Z,64.03
2019-02-12T22:56:38.402Z,64.47
2019-02-12T22:59:05.350Z,64.60
2019-02-12T23:01:36.833Z,64.44
2019-02-12T23:04:04.069Z,64.52
2019-02-12T23:06:30.956Z,64.78
2019-02-12T23:08:58.261Z,65.14
2019-02-12T23:11:26.594Z,64.98
2019-02-12T23:13:53.793Z,64.41
2019-02-12T23:16:20.689Z,64.49
2019-02-12T23:18:48.553Z,64.15
2019-02-12T23:21:15.524Z,64.32
2019-02-12T23:23:42.919Z,64.55
2019-02-12T23:26:09.932Z,64.40
2019-02-12T23:28:36.744Z,64.48
2019-02-12T23:31:03.620Z,64.76
2019-02-12T23:33:30.570Z,65.14
2019-02-12T23:35:57.344Z,65.38
2019-02-12T23:38:24.137Z,65.54
2019-02-12T23:40:50.980Z,65.27
2019-02-12T23:43:17.748Z,65.19
2019-02-12T23:45:44.727Z,64.94
2019-02-12T23:48:14.927Z,64.78
2019-02-12T23:50:42.168Z,64.57
2019-02-12T23:53:09.151Z,64.46
2019-02-12T23:55:36.037Z,64.76
2019-02-12T23:58:06.011Z,64.17
